createdAt,value
2017-09-17T00:00:16.665Z,1006.52
2017-09-17T00:00:42.816Z,1006.51
2017-09-17T00:01:08.944Z,1006.54
2017-09-17T00:01:35.073Z,1006.59
2017-09-17T00:02:01.226Z,1006.6
2017-09-17T00:02:27.355Z,1006.53
2017-09-17T00:02:53.485Z,1006.53
2017-09-17T00:03:19.637Z,1006.53
2017-09-17T00:03:45.765Z,1006.53
2017-09-17T00:04:11.917Z,1006.54
2017-09-17T00:04:38.046Z,1006.51
2017-09-17T00:05:04.175Z,1006.58
2017-09-17T00:05:30.306Z,1006.56
2017-09-17T00:05:56.436Z,1006.57
2017-09-17T00:06:22.565Z,1006.52
2017-09-17T00:06:48.694Z,1006.55
2017-09-17T00:07:14.824Z,1006.56
2017-09-17T00:07:40.953Z,1006.58
2017-09-17T00:08:07.082Z,1006.55
2017-09-17T00:08:33.213Z,1006.55
2017-09-17T00:08:59.342Z,1006.56
2017-09-17T00:09:25.495Z,1006.57
2017-09-17T00:09:51.623Z,1006.53
2017-09-17T00:10:17.752Z,1006.52
2017-09-17T00:10:43.882Z,1006.54
2017-09-17T00:11:10.023Z,1006.57
2017-09-17T00:11:36.163Z,1006.53
2017-09-17T00:12:02.293Z,1006.53
2017-09-17T00:12:28.421Z,1006.55
2017-09-17T00:12:54.552Z,1006.5
2017-09-17T00:13:20.681Z,1006.53
2017-09-17T00:13:46.811Z,1006.48
2017-09-17T00:14:12.942Z,1006.48
2017-09-17T00:14:39.072Z,1006.49
2017-09-17T00:15:05.200Z,1006.53
2017-09-17T00:15:31.330Z,1006.51
2017-09-17T00:15:57.459Z,1006.49
2017-09-17T00:16:23.589Z,1006.49
2017-09-17T00:16:49.736Z,1006.51
2017-09-17T00:17:15.848Z,1006.53
2017-09-17T00:17:41.977Z,1006.51
2017-09-17T00:18:08.106Z,1006.5
2017-09-17T00:18:34.237Z,1006.49
2017-09-17T00:19:00.367Z,1006.5
2017-09-17T00:19:26.498Z,1006.5
2017-09-17T00:19:52.626Z,1006.49
2017-09-17T00:20:18.756Z,1006.54
2017-09-17T00:20:44.885Z,1006.55
2017-09-17T00:21:11.013Z,1006.51
2017-09-17T00:21:37.144Z,1006.52
2017-09-17T00:22:03.273Z,1006.49
2017-09-17T00:22:29.422Z,1006.47
2017-09-17T00:22:55.533Z,1006.49
2017-09-17T00:23:21.663Z,1006.49
2017-09-17T00:23:47.792Z,1006.47
2017-09-17T00:24:13.922Z,1006.47
2017-09-17T00:24:40.052Z,1006.42
2017-09-17T00:25:06.181Z,1006.47
2017-09-17T00:25:32.310Z,1006.46
2017-09-17T00:25:58.440Z,1006.47
2017-09-17T00:26:24.569Z,1006.47
2017-09-17T00:26:50.699Z,1006.44
2017-09-17T00:27:16.830Z,1006.44
2017-09-17T00:27:42.958Z,1006.43
2017-09-17T00:28:09.109Z,1006.45
2017-09-17T00:28:35.238Z,1006.44
2017-09-17T00:29:01.368Z,1006.47
2017-09-17T00:29:27.497Z,1006.45
2017-09-17T00:29:53.626Z,1006.44
2017-09-17T00:30:19.758Z,1006.47
2017-09-17T00:30:45.890Z,1006.47
2017-09-17T00:31:12.022Z,1006.45
2017-09-17T00:31:38.145Z,1006.46
2017-09-17T00:32:04.275Z,1006.41
2017-09-17T00:32:30.404Z,1006.45
2017-09-17T00:32:56.534Z,1006.45
2017-09-17T00:33:22.686Z,1006.41
2017-09-17T00:33:48.816Z,1006.44
2017-09-17T00:34:14.945Z,1006.42
2017-09-17T00:34:41.077Z,1006.43
2017-09-17T00:35:07.205Z,1006.4
2017-09-17T00:35:33.336Z,1006.46
2017-09-17T00:35:59.465Z,1006.43
2017-09-17T00:36:25.594Z,1006.4
2017-09-17T00:36:51.725Z,1006.4
2017-09-17T00:37:17.854Z,1006.42
2017-09-17T00:37:43.982Z,1006.4
2017-09-17T00:38:10.111Z,1006.4
2017-09-17T00:38:36.243Z,1006.4
2017-09-17T00:39:02.372Z,1006.4
2017-09-17T00:39:28.522Z,1006.38
2017-09-17T00:39:54.651Z,1006.4
2017-09-17T00:40:20.780Z,1006.4
2017-09-17T00:40:46.909Z,1006.4
2017-09-17T00:41:13.062Z,1006.38
2017-09-17T00:41:39.194Z,1006.44
2017-09-17T00:42:05.322Z,1006.43
2017-09-17T00:42:31.451Z,1006.4
2017-09-17T00:42:57.581Z,1006.38
2017-09-17T00:43:23.711Z,1006.4
2017-09-17T00:43:49.862Z,1006.39
2017-09-17T00:44:15.990Z,1006.37
2017-09-17T00:44:42.139Z,1006.36
2017-09-17T00:45:08.300Z,1006.37
2017-09-17T00:45:34.458Z,1006.38
2017-09-17T00:46:00.619Z,1006.38
2017-09-17T00:46:26.779Z,1006.37
2017-09-17T00:46:52.941Z,1006.36
2017-09-17T00:47:19.103Z,1006.38
2017-09-17T00:47:45.266Z,1006.35
2017-09-17T00:48:11.426Z,1006.36
2017-09-17T00:48:37.589Z,1006.37
2017-09-17T00:49:03.747Z,1006.39
2017-09-17T00:49:29.907Z,1006.41
2017-09-17T00:49:56.068Z,1006.34
2017-09-17T00:50:22.227Z,1006.4
2017-09-17T00:50:48.388Z,1006.41
2017-09-17T00:51:14.548Z,1006.38
2017-09-17T00:51:40.710Z,1006.36
2017-09-17T00:52:06.869Z,1006.38
2017-09-17T00:52:33.031Z,1006.39
2017-09-17T00:52:59.192Z,1006.38
2017-09-17T00:53:25.355Z,1006.35
2017-09-17T00:53:51.517Z,1006.34
2017-09-17T00:54:17.732Z,1006.35
2017-09-17T00:54:43.923Z,1006.35
2017-09-17T00:55:10.083Z,1006.37
2017-09-17T00:55:36.244Z,1006.39
2017-09-17T00:56:02.433Z,1006.36
2017-09-17T00:56:28.593Z,1006.4
2017-09-17T00:56:54.753Z,1006.38
2017-09-17T00:57:20.913Z,1006.38
2017-09-17T00:57:47.080Z,1006.41
2017-09-17T00:58:13.236Z,1006.4
2017-09-17T00:58:39.398Z,1006.39
2017-09-17T00:59:05.561Z,1006.37
2017-09-17T00:59:31.723Z,1006.42
2017-09-17T00:59:57.884Z,1006.4
2017-09-17T01:00:24.046Z,1006.4
2017-09-17T01:00:50.208Z,1006.4
2017-09-17T01:01:16.372Z,1006.43
2017-09-17T01:01:42.529Z,1006.41
2017-09-17T01:02:08.691Z,1006.4
2017-09-17T01:02:34.853Z,1006.39
2017-09-17T01:03:01.013Z,1006.4
2017-09-17T01:03:27.175Z,1006.39
2017-09-17T01:03:53.338Z,1006.4
2017-09-17T01:04:19.500Z,1006.39
2017-09-17T01:04:45.662Z,1006.4
2017-09-17T01:05:11.822Z,1006.4
2017-09-17T01:05:37.982Z,1006.42
2017-09-17T01:06:04.145Z,1006.41
2017-09-17T01:06:30.306Z,1006.45
2017-09-17T01:06:56.466Z,1006.39
2017-09-17T01:07:22.630Z,1006.44
2017-09-17T01:07:48.792Z,1006.41
2017-09-17T01:08:14.982Z,1006.39
2017-09-17T01:08:41.142Z,1006.42
2017-09-17T01:09:07.303Z,1006.41
2017-09-17T01:09:33.495Z,1006.42
2017-09-17T01:09:59.658Z,1006.43
2017-09-17T01:10:25.817Z,1006.41
2017-09-17T01:10:51.978Z,1006.4
2017-09-17T01:11:18.142Z,1006.42
2017-09-17T01:11:44.303Z,1006.41
2017-09-17T01:12:10.462Z,1006.43
2017-09-17T01:12:36.652Z,1006.41
2017-09-17T01:13:02.816Z,1006.44
2017-09-17T01:13:28.976Z,1006.39
2017-09-17T01:13:55.136Z,1006.42
2017-09-17T01:14:21.296Z,1006.41
2017-09-17T01:14:47.459Z,1006.41
2017-09-17T01:15:13.617Z,1006.45
2017-09-17T01:15:39.805Z,1006.41
2017-09-17T01:16:05.965Z,1006.44
2017-09-17T01:16:32.149Z,1006.4
2017-09-17T01:16:58.285Z,1006.38
2017-09-17T01:17:24.448Z,1006.4
2017-09-17T01:17:50.610Z,1006.37
2017-09-17T01:18:16.773Z,1006.37
2017-09-17T01:18:42.933Z,1006.41
2017-09-17T01:19:09.095Z,1006.39
2017-09-17T01:19:35.253Z,1006.39
2017-09-17T01:20:01.417Z,1006.38
2017-09-17T01:20:27.632Z,1006.39
2017-09-17T01:20:53.793Z,1006.37
2017-09-17T01:21:19.954Z,1006.39
2017-09-17T01:21:46.114Z,1006.38
2017-09-17T01:22:12.277Z,1006.38
2017-09-17T01:22:38.439Z,1006.39
2017-09-17T01:23:04.599Z,1006.34
2017-09-17T01:23:30.758Z,1006.38
2017-09-17T01:23:56.919Z,1006.38
2017-09-17T01:24:23.081Z,1006.4
2017-09-17T01:24:49.242Z,1006.36
2017-09-17T01:25:15.402Z,1006.38
2017-09-17T01:25:41.565Z,1006.35
2017-09-17T01:26:07.727Z,1006.35
2017-09-17T01:26:33.888Z,1006.36
2017-09-17T01:27:00.047Z,1006.36
2017-09-17T01:27:26.208Z,1006.37
2017-09-17T01:27:52.370Z,1006.35
2017-09-17T01:28:18.531Z,1006.34
2017-09-17T01:28:44.691Z,1006.32
2017-09-17T01:29:10.853Z,1006.39
2017-09-17T01:29:37.016Z,1006.32
2017-09-17T01:30:03.176Z,1006.34
2017-09-17T01:30:29.337Z,1006.36
2017-09-17T01:30:55.500Z,1006.35
2017-09-17T01:31:21.664Z,1006.37
2017-09-17T01:31:47.825Z,1006.37
2017-09-17T01:32:13.985Z,1006.36
2017-09-17T01:32:40.145Z,1006.35
2017-09-17T01:33:06.305Z,1006.39
2017-09-17T01:33:32.464Z,1006.37
2017-09-17T01:33:58.626Z,1006.38
2017-09-17T01:34:24.816Z,1006.35
2017-09-17T01:34:50.975Z,1006.39
2017-09-17T01:35:17.138Z,1006.38
2017-09-17T01:35:43.301Z,1006.39
2017-09-17T01:36:09.464Z,1006.4
2017-09-17T01:36:35.656Z,1006.41
2017-09-17T01:37:01.817Z,1006.38
2017-09-17T01:37:27.977Z,1006.38
2017-09-17T01:37:54.137Z,1006.37
2017-09-17T01:38:20.300Z,1006.39
2017-09-17T01:38:46.460Z,1006.37
2017-09-17T01:39:12.625Z,1006.44
2017-09-17T01:39:38.783Z,1006.42
2017-09-17T01:40:04.944Z,1006.39
2017-09-17T01:40:31.108Z,1006.38
2017-09-17T01:40:57.269Z,1006.35
2017-09-17T01:41:23.429Z,1006.41
2017-09-17T01:41:49.589Z,1006.4
2017-09-17T01:42:15.752Z,1006.42
2017-09-17T01:42:41.943Z,1006.43
2017-09-17T01:43:08.104Z,1006.41
2017-09-17T01:43:34.264Z,1006.39
2017-09-17T01:44:00.424Z,1006.41
2017-09-17T01:44:26.587Z,1006.41
2017-09-17T01:44:52.748Z,1006.41
2017-09-17T01:45:18.909Z,1006.39
2017-09-17T01:45:45.072Z,1006.39
2017-09-17T01:46:11.232Z,1006.4
2017-09-17T01:46:37.392Z,1006.38
2017-09-17T01:47:03.554Z,1006.37
2017-09-17T01:47:29.712Z,1006.39
2017-09-17T01:47:55.874Z,1006.42
2017-09-17T01:48:22.038Z,1006.42
2017-09-17T01:48:48.225Z,1006.36
2017-09-17T01:49:14.385Z,1006.39
2017-09-17T01:49:40.575Z,1006.38
2017-09-17T01:50:06.737Z,1006.37
2017-09-17T01:50:32.899Z,1006.4
2017-09-17T01:50:59.062Z,1006.36
2017-09-17T01:51:25.222Z,1006.37
2017-09-17T01:51:51.382Z,1006.4
2017-09-17T01:52:17.543Z,1006.4
2017-09-17T01:52:43.705Z,1006.38
2017-09-17T01:53:09.865Z,1006.39
2017-09-17T01:53:36.026Z,1006.37
2017-09-17T01:54:02.189Z,1006.38
2017-09-17T01:54:28.350Z,1006.37
2017-09-17T01:54:54.539Z,1006.36
2017-09-17T01:55:20.701Z,1006.38
2017-09-17T01:55:46.862Z,1006.37
2017-09-17T01:56:13.024Z,1006.36
2017-09-17T01:56:39.187Z,1006.33
2017-09-17T01:57:05.349Z,1006.37
2017-09-17T01:57:31.511Z,1006.38
2017-09-17T01:57:57.699Z,1006.36
2017-09-17T01:58:23.862Z,1006.37
2017-09-17T01:58:50.020Z,1006.34
2017-09-17T01:59:16.181Z,1006.36
2017-09-17T01:59:42.371Z,1006.38
2017-09-17T02:00:08.531Z,1006.37
2017-09-17T02:00:34.691Z,1006.37
2017-09-17T02:01:00.854Z,1006.34
2017-09-17T02:01:27.016Z,1006.33
2017-09-17T02:01:53.176Z,1006.37
2017-09-17T02:02:19.338Z,1006.34
2017-09-17T02:02:45.501Z,1006.33
2017-09-17T02:03:11.662Z,1006.35
2017-09-17T02:03:37.821Z,1006.35
2017-09-17T02:04:03.983Z,1006.34
2017-09-17T02:04:30.144Z,1006.32
2017-09-17T02:04:56.305Z,1006.32
2017-09-17T02:05:22.468Z,1006.35
2017-09-17T02:05:48.627Z,1006.33
2017-09-17T02:06:14.786Z,1006.35
2017-09-17T02:06:40.944Z,1006.33
2017-09-17T02:07:07.107Z,1006.33
2017-09-17T02:07:33.267Z,1006.35
2017-09-17T02:07:59.429Z,1006.33
2017-09-17T02:08:25.590Z,1006.35
2017-09-17T02:08:51.752Z,1006.37
2017-09-17T02:09:17.910Z,1006.38
2017-09-17T02:09:44.069Z,1006.35
2017-09-17T02:10:10.231Z,1006.34
2017-09-17T02:10:36.391Z,1006.35
2017-09-17T02:11:02.580Z,1006.36
2017-09-17T02:11:28.742Z,1006.37
2017-09-17T02:11:54.931Z,1006.36
2017-09-17T02:12:21.121Z,1006.4
2017-09-17T02:12:47.311Z,1006.37
2017-09-17T02:13:13.476Z,1006.38
2017-09-17T02:13:39.664Z,1006.35
2017-09-17T02:14:05.852Z,1006.38
2017-09-17T02:14:32.012Z,1006.38
2017-09-17T02:14:58.172Z,1006.35
2017-09-17T02:15:24.331Z,1006.38
2017-09-17T02:15:50.491Z,1006.37
2017-09-17T02:16:16.652Z,1006.35
2017-09-17T02:16:42.812Z,1006.34
2017-09-17T02:17:08.972Z,1006.35
2017-09-17T02:17:35.133Z,1006.38
2017-09-17T02:18:01.295Z,1006.35
2017-09-17T02:18:27.457Z,1006.36
2017-09-17T02:18:53.617Z,1006.4
2017-09-17T02:19:19.777Z,1006.41
2017-09-17T02:19:45.936Z,1006.42
2017-09-17T02:20:12.102Z,1006.41
2017-09-17T02:20:38.262Z,1006.42
2017-09-17T02:21:04.449Z,1006.41
2017-09-17T02:21:30.612Z,1006.44
2017-09-17T02:21:56.773Z,1006.42
2017-09-17T02:22:22.934Z,1006.45
2017-09-17T02:22:49.094Z,1006.43
2017-09-17T02:23:15.284Z,1006.42
2017-09-17T02:23:41.444Z,1006.42
2017-09-17T02:24:07.605Z,1006.43
2017-09-17T02:24:33.766Z,1006.45
2017-09-17T02:24:59.927Z,1006.4
2017-09-17T02:25:26.085Z,1006.43
2017-09-17T02:25:52.246Z,1006.42
2017-09-17T02:26:18.407Z,1006.43
2017-09-17T02:26:44.569Z,1006.42
2017-09-17T02:27:10.727Z,1006.45
2017-09-17T02:27:36.890Z,1006.43
2017-09-17T02:28:03.050Z,1006.45
2017-09-17T02:28:29.215Z,1006.45
2017-09-17T02:28:55.430Z,1006.41
2017-09-17T02:29:21.590Z,1006.45
2017-09-17T02:29:47.751Z,1006.44
2017-09-17T02:30:13.912Z,1006.43
2017-09-17T02:30:40.072Z,1006.42
2017-09-17T02:31:06.233Z,1006.43
2017-09-17T02:31:32.392Z,1006.44
2017-09-17T02:31:58.554Z,1006.46
2017-09-17T02:32:24.717Z,1006.43
2017-09-17T02:32:50.877Z,1006.43
2017-09-17T02:33:17.039Z,1006.46
2017-09-17T02:33:43.198Z,1006.44
2017-09-17T02:34:09.358Z,1006.39
2017-09-17T02:34:35.520Z,1006.44
2017-09-17T02:35:01.681Z,1006.45
2017-09-17T02:35:27.845Z,1006.46
2017-09-17T02:35:54.032Z,1006.44
2017-09-17T02:36:20.221Z,1006.41
2017-09-17T02:36:46.383Z,1006.45
2017-09-17T02:37:12.571Z,1006.46
2017-09-17T02:37:38.732Z,1006.42
2017-09-17T02:38:04.921Z,1006.43
2017-09-17T02:38:31.077Z,1006.45
2017-09-17T02:38:57.243Z,1006.42
2017-09-17T02:39:23.399Z,1006.46
2017-09-17T02:39:49.561Z,1006.46
2017-09-17T02:40:15.722Z,1006.49
2017-09-17T02:40:41.886Z,1006.48
2017-09-17T02:41:08.048Z,1006.46
2017-09-17T02:41:34.211Z,1006.49
2017-09-17T02:42:00.370Z,1006.47
2017-09-17T02:42:26.531Z,1006.48
2017-09-17T02:42:52.692Z,1006.51
2017-09-17T02:43:18.860Z,1006.47
2017-09-17T02:43:45.044Z,1006.47
2017-09-17T02:44:11.205Z,1006.52
2017-09-17T02:44:37.367Z,1006.48
2017-09-17T02:45:03.525Z,1006.51
2017-09-17T02:45:29.715Z,1006.51
2017-09-17T02:45:55.876Z,1006.51
2017-09-17T02:46:22.036Z,1006.48
2017-09-17T02:46:48.197Z,1006.49
2017-09-17T02:47:14.389Z,1006.5
2017-09-17T02:47:40.551Z,1006.51
2017-09-17T02:48:06.741Z,1006.49
2017-09-17T02:48:32.901Z,1006.5
2017-09-17T02:48:59.064Z,1006.52
2017-09-17T02:49:25.252Z,1006.51
2017-09-17T02:49:51.415Z,1006.49
2017-09-17T02:50:17.577Z,1006.47
2017-09-17T02:50:43.740Z,1006.47
2017-09-17T02:51:09.899Z,1006.48
2017-09-17T02:51:36.059Z,1006.48
2017-09-17T02:52:02.220Z,1006.46
2017-09-17T02:52:28.382Z,1006.48
2017-09-17T02:52:54.540Z,1006.5
2017-09-17T02:53:20.705Z,1006.47
2017-09-17T02:53:46.867Z,1006.48
2017-09-17T02:54:13.029Z,1006.45
2017-09-17T02:54:39.219Z,1006.47
2017-09-17T02:55:05.379Z,1006.5
2017-09-17T02:55:31.538Z,1006.46
2017-09-17T02:55:57.699Z,1006.47
2017-09-17T02:56:23.859Z,1006.47
2017-09-17T02:56:50.018Z,1006.47
2017-09-17T02:57:16.178Z,1006.46
2017-09-17T02:57:42.340Z,1006.45
2017-09-17T02:58:08.501Z,1006.45
2017-09-17T02:58:34.668Z,1006.45
2017-09-17T02:59:00.822Z,1006.49
2017-09-17T02:59:26.984Z,1006.45
2017-09-17T02:59:53.145Z,1006.49
2017-09-17T03:00:19.333Z,1006.47
2017-09-17T03:00:45.494Z,1006.46
2017-09-17T03:01:11.653Z,1006.45
2017-09-17T03:01:37.811Z,1006.46
2017-09-17T03:02:03.975Z,1006.45
2017-09-17T03:02:30.164Z,1006.47
2017-09-17T03:02:56.325Z,1006.46
2017-09-17T03:03:22.486Z,1006.46
2017-09-17T03:03:48.649Z,1006.48
2017-09-17T03:04:14.812Z,1006.49
2017-09-17T03:04:40.970Z,1006.43
2017-09-17T03:05:07.133Z,1006.47
2017-09-17T03:05:33.295Z,1006.47
2017-09-17T03:05:59.455Z,1006.45
2017-09-17T03:06:25.616Z,1006.47
2017-09-17T03:06:51.780Z,1006.45
2017-09-17T03:07:17.943Z,1006.45
2017-09-17T03:07:44.105Z,1006.47
2017-09-17T03:08:10.264Z,1006.5
2017-09-17T03:08:36.426Z,1006.46
2017-09-17T03:09:02.587Z,1006.46
2017-09-17T03:09:28.749Z,1006.5
2017-09-17T03:09:54.907Z,1006.47
2017-09-17T03:10:21.098Z,1006.47
2017-09-17T03:10:47.258Z,1006.47
2017-09-17T03:11:13.418Z,1006.47
2017-09-17T03:11:39.580Z,1006.46
2017-09-17T03:12:05.741Z,1006.48
2017-09-17T03:12:31.901Z,1006.44
2017-09-17T03:12:58.064Z,1006.44
2017-09-17T03:13:24.226Z,1006.4
2017-09-17T03:13:50.389Z,1006.41
2017-09-17T03:14:16.548Z,1006.42
2017-09-17T03:14:42.710Z,1006.43
2017-09-17T03:15:08.870Z,1006.42
2017-09-17T03:15:35.031Z,1006.42
2017-09-17T03:16:01.190Z,1006.41
2017-09-17T03:16:27.351Z,1006.41
2017-09-17T03:16:53.513Z,1006.44
2017-09-17T03:17:19.677Z,1006.45
2017-09-17T03:17:45.836Z,1006.44
2017-09-17T03:18:11.997Z,1006.44
2017-09-17T03:18:38.158Z,1006.49
2017-09-17T03:19:04.321Z,1006.43
2017-09-17T03:19:30.480Z,1006.42
2017-09-17T03:19:56.642Z,1006.45
2017-09-17T03:20:22.804Z,1006.44
2017-09-17T03:20:48.964Z,1006.45
2017-09-17T03:21:15.123Z,1006.41
2017-09-17T03:21:41.287Z,1006.44
2017-09-17T03:22:07.476Z,1006.46
2017-09-17T03:22:33.637Z,1006.46
2017-09-17T03:22:59.799Z,1006.45
2017-09-17T03:23:25.960Z,1006.42
2017-09-17T03:23:52.120Z,1006.4
2017-09-17T03:24:18.281Z,1006.44
2017-09-17T03:24:44.441Z,1006.42
2017-09-17T03:25:10.603Z,1006.42
2017-09-17T03:25:36.762Z,1006.41
2017-09-17T03:26:02.925Z,1006.41
2017-09-17T03:26:29.088Z,1006.42
2017-09-17T03:26:55.250Z,1006.42
2017-09-17T03:27:21.411Z,1006.41
2017-09-17T03:27:47.603Z,1006.42
2017-09-17T03:28:13.765Z,1006.42
2017-09-17T03:28:39.924Z,1006.43
2017-09-17T03:29:06.085Z,1006.41
2017-09-17T03:29:32.247Z,1006.43
2017-09-17T03:29:58.409Z,1006.43
2017-09-17T03:30:24.569Z,1006.4
2017-09-17T03:30:50.730Z,1006.42
2017-09-17T03:31:16.890Z,1006.4
2017-09-17T03:31:43.050Z,1006.41
2017-09-17T03:32:09.210Z,1006.42
2017-09-17T03:32:35.372Z,1006.43
2017-09-17T03:33:01.562Z,1006.41
2017-09-17T03:33:27.724Z,1006.41
2017-09-17T03:33:53.884Z,1006.4
2017-09-17T03:34:20.045Z,1006.4
2017-09-17T03:34:46.204Z,1006.44
2017-09-17T03:35:12.369Z,1006.43
2017-09-17T03:35:38.531Z,1006.42
2017-09-17T03:36:04.693Z,1006.45
2017-09-17T03:36:30.852Z,1006.45
2017-09-17T03:36:57.014Z,1006.44
2017-09-17T03:37:23.174Z,1006.45
2017-09-17T03:37:49.365Z,1006.45
2017-09-17T03:38:15.528Z,1006.46
2017-09-17T03:38:41.689Z,1006.45
2017-09-17T03:39:07.850Z,1006.44
2017-09-17T03:39:34.009Z,1006.44
2017-09-17T03:40:00.198Z,1006.47
2017-09-17T03:40:26.357Z,1006.48
2017-09-17T03:40:52.520Z,1006.49
2017-09-17T03:41:18.681Z,1006.46
2017-09-17T03:41:44.842Z,1006.48
2017-09-17T03:42:11.002Z,1006.46
2017-09-17T03:42:37.164Z,1006.52
2017-09-17T03:43:03.326Z,1006.49
2017-09-17T03:43:29.515Z,1006.5
2017-09-17T03:43:55.677Z,1006.48
2017-09-17T03:44:21.837Z,1006.51
2017-09-17T03:44:47.997Z,1006.46
2017-09-17T03:45:14.156Z,1006.47
2017-09-17T03:45:40.317Z,1006.51
2017-09-17T03:46:06.478Z,1006.53
2017-09-17T03:46:32.638Z,1006.47
2017-09-17T03:46:58.798Z,1006.46
2017-09-17T03:47:24.986Z,1006.48
2017-09-17T03:47:51.146Z,1006.48
2017-09-17T03:48:17.307Z,1006.47
2017-09-17T03:48:43.467Z,1006.47
2017-09-17T03:49:09.625Z,1006.5
2017-09-17T03:49:35.787Z,1006.48
2017-09-17T03:50:01.950Z,1006.48
2017-09-17T03:50:28.111Z,1006.47
2017-09-17T03:50:54.269Z,1006.49
2017-09-17T03:51:20.430Z,1006.47
2017-09-17T03:51:46.591Z,1006.48
2017-09-17T03:52:12.753Z,1006.49
2017-09-17T03:52:38.915Z,1006.47
2017-09-17T03:53:05.076Z,1006.47
2017-09-17T03:53:31.238Z,1006.49
2017-09-17T03:53:57.400Z,1006.52
2017-09-17T03:54:23.559Z,1006.5
2017-09-17T03:54:49.724Z,1006.5
2017-09-17T03:55:15.881Z,1006.44
2017-09-17T03:55:42.042Z,1006.51
2017-09-17T03:56:08.203Z,1006.48
2017-09-17T03:56:34.365Z,1006.46
2017-09-17T03:57:00.526Z,1006.45
2017-09-17T03:57:26.725Z,1006.48
2017-09-17T03:57:52.848Z,1006.46
2017-09-17T03:58:19.010Z,1006.47
2017-09-17T03:58:45.170Z,1006.45
2017-09-17T03:59:11.333Z,1006.46
2017-09-17T03:59:37.491Z,1006.44
2017-09-17T04:00:03.653Z,1006.42
2017-09-17T04:00:29.815Z,1006.43
2017-09-17T04:00:55.976Z,1006.42
2017-09-17T04:01:22.137Z,1006.45
2017-09-17T04:01:48.326Z,1006.41
2017-09-17T04:02:14.486Z,1006.4
2017-09-17T04:02:40.648Z,1006.42
2017-09-17T04:03:06.809Z,1006.39
2017-09-17T04:03:32.971Z,1006.38
2017-09-17T04:03:59.130Z,1006.38
2017-09-17T04:04:25.292Z,1006.36
2017-09-17T04:04:51.453Z,1006.36
2017-09-17T04:05:17.613Z,1006.37
2017-09-17T04:05:43.774Z,1006.38
2017-09-17T04:06:09.937Z,1006.37
2017-09-17T04:06:36.098Z,1006.41
2017-09-17T04:07:02.259Z,1006.38
2017-09-17T04:07:28.417Z,1006.41
2017-09-17T04:07:54.578Z,1006.39
2017-09-17T04:08:20.738Z,1006.35
2017-09-17T04:08:46.899Z,1006.36
2017-09-17T04:09:13.061Z,1006.39
2017-09-17T04:09:39.221Z,1006.37
2017-09-17T04:10:05.385Z,1006.41
2017-09-17T04:10:31.544Z,1006.39
2017-09-17T04:10:57.705Z,1006.34
2017-09-17T04:11:23.867Z,1006.37
2017-09-17T04:11:50.028Z,1006.38
2017-09-17T04:12:16.188Z,1006.35
2017-09-17T04:12:42.350Z,1006.35
2017-09-17T04:13:08.513Z,1006.39
2017-09-17T04:13:34.701Z,1006.42
2017-09-17T04:14:00.863Z,1006.41
2017-09-17T04:14:27.023Z,1006.39
2017-09-17T04:14:53.188Z,1006.39
2017-09-17T04:15:19.372Z,1006.39
2017-09-17T04:15:45.534Z,1006.41
2017-09-17T04:16:11.695Z,1006.41
2017-09-17T04:16:37.885Z,1006.42
2017-09-17T04:17:04.045Z,1006.42
2017-09-17T04:17:30.204Z,1006.41
2017-09-17T04:17:56.365Z,1006.4
2017-09-17T04:18:22.524Z,1006.39
2017-09-17T04:18:48.686Z,1006.4
2017-09-17T04:19:14.875Z,1006.42
2017-09-17T04:19:41.065Z,1006.42
2017-09-17T04:20:07.227Z,1006.39
2017-09-17T04:20:33.415Z,1006.39
2017-09-17T04:20:59.575Z,1006.43
2017-09-17T04:21:25.738Z,1006.39
2017-09-17T04:21:51.924Z,1006.4
2017-09-17T04:22:18.086Z,1006.42
2017-09-17T04:22:44.246Z,1006.39
2017-09-17T04:23:10.408Z,1006.42
2017-09-17T04:23:36.567Z,1006.41
2017-09-17T04:24:02.729Z,1006.38
2017-09-17T04:24:28.892Z,1006.42
2017-09-17T04:24:55.052Z,1006.42
2017-09-17T04:25:21.210Z,1006.42
2017-09-17T04:25:47.371Z,1006.41
2017-09-17T04:26:13.531Z,1006.41
2017-09-17T04:26:39.693Z,1006.4
2017-09-17T04:27:05.853Z,1006.42
2017-09-17T04:27:32.015Z,1006.42
2017-09-17T04:27:58.207Z,1006.4
2017-09-17T04:28:24.366Z,1006.44
2017-09-17T04:28:50.527Z,1006.42
2017-09-17T04:29:16.686Z,1006.42
2017-09-17T04:29:42.876Z,1006.46
2017-09-17T04:30:09.036Z,1006.45
2017-09-17T04:30:35.196Z,1006.41
2017-09-17T04:31:01.357Z,1006.4
2017-09-17T04:31:27.520Z,1006.47
2017-09-17T04:31:53.682Z,1006.45
2017-09-17T04:32:19.847Z,1006.47
2017-09-17T04:32:46.007Z,1006.46
2017-09-17T04:33:12.169Z,1006.49
2017-09-17T04:33:38.330Z,1006.47
2017-09-17T04:34:04.490Z,1006.49
2017-09-17T04:34:30.649Z,1006.53
2017-09-17T04:34:56.810Z,1006.49
2017-09-17T04:35:22.972Z,1006.49
2017-09-17T04:35:49.134Z,1006.51
2017-09-17T04:36:15.323Z,1006.52
2017-09-17T04:36:41.483Z,1006.55
2017-09-17T04:37:07.644Z,1006.55
2017-09-17T04:37:33.804Z,1006.54
2017-09-17T04:37:59.963Z,1006.56
2017-09-17T04:38:26.123Z,1006.57
2017-09-17T04:38:52.313Z,1006.54
2017-09-17T04:39:18.474Z,1006.57
2017-09-17T04:39:44.635Z,1006.54
2017-09-17T04:40:10.826Z,1006.55
2017-09-17T04:40:36.986Z,1006.53
2017-09-17T04:41:03.177Z,1006.53
2017-09-17T04:41:29.337Z,1006.52
2017-09-17T04:41:55.497Z,1006.56
2017-09-17T04:42:21.656Z,1006.58
2017-09-17T04:42:47.846Z,1006.57
2017-09-17T04:43:14.006Z,1006.57
2017-09-17T04:43:40.166Z,1006.59
2017-09-17T04:44:06.356Z,1006.57
2017-09-17T04:44:32.572Z,1006.54
2017-09-17T04:44:58.734Z,1006.57
2017-09-17T04:45:24.893Z,1006.58
2017-09-17T04:45:51.057Z,1006.59
2017-09-17T04:46:17.243Z,1006.58
2017-09-17T04:46:43.403Z,1006.58
2017-09-17T04:47:09.595Z,1006.57
2017-09-17T04:47:35.754Z,1006.59
2017-09-17T04:48:01.914Z,1006.6
2017-09-17T04:48:28.073Z,1006.62
2017-09-17T04:48:54.233Z,1006.61
2017-09-17T04:49:20.394Z,1006.63
2017-09-17T04:49:46.555Z,1006.56
2017-09-17T04:50:12.717Z,1006.62
2017-09-17T04:50:38.876Z,1006.62
2017-09-17T04:51:05.036Z,1006.62
2017-09-17T04:51:31.198Z,1006.62
2017-09-17T04:51:57.359Z,1006.63
2017-09-17T04:52:23.518Z,1006.6
2017-09-17T04:52:49.679Z,1006.62
2017-09-17T04:53:15.840Z,1006.61
2017-09-17T04:53:42.001Z,1006.6
2017-09-17T04:54:08.193Z,1006.62
2017-09-17T04:54:34.378Z,1006.6
2017-09-17T04:55:00.540Z,1006.59
2017-09-17T04:55:26.702Z,1006.6
2017-09-17T04:55:52.862Z,1006.62
2017-09-17T04:56:19.024Z,1006.62
2017-09-17T04:56:45.184Z,1006.62
2017-09-17T04:57:11.348Z,1006.64
2017-09-17T04:57:37.509Z,1006.64
2017-09-17T04:58:03.669Z,1006.62
2017-09-17T04:58:29.831Z,1006.64
2017-09-17T04:58:55.990Z,1006.64
2017-09-17T04:59:22.151Z,1006.66
2017-09-17T04:59:48.311Z,1006.71
2017-09-17T05:00:14.471Z,1006.71
2017-09-17T05:00:40.660Z,1006.7
2017-09-17T05:01:06.820Z,1006.71
2017-09-17T05:01:32.983Z,1006.69
2017-09-17T05:01:59.175Z,1006.73
2017-09-17T05:02:25.338Z,1006.75
2017-09-17T05:02:51.502Z,1006.75
2017-09-17T05:03:17.666Z,1006.76
2017-09-17T05:03:43.831Z,1006.77
2017-09-17T05:04:09.995Z,1006.77
2017-09-17T05:04:36.475Z,1006.79
2017-09-17T05:05:02.642Z,1006.79
2017-09-17T05:05:28.802Z,1006.79
2017-09-17T05:05:54.964Z,1006.78
2017-09-17T05:06:21.125Z,1006.8
2017-09-17T05:06:47.289Z,1006.79
2017-09-17T05:07:13.678Z,1006.82
2017-09-17T05:07:39.833Z,1006.82
2017-09-17T05:08:06.036Z,1006.83
2017-09-17T05:08:32.214Z,1006.85
2017-09-17T05:08:58.360Z,1006.86
2017-09-17T05:09:24.521Z,1006.86
2017-09-17T05:09:50.713Z,1006.86
2017-09-17T05:10:16.876Z,1006.86
2017-09-17T05:10:43.039Z,1006.87
2017-09-17T05:11:09.203Z,1006.88
2017-09-17T05:11:35.365Z,1006.91
2017-09-17T05:12:01.529Z,1006.89
2017-09-17T05:12:27.693Z,1006.9
2017-09-17T05:12:53.853Z,1006.92
2017-09-17T05:13:20.017Z,1006.93
2017-09-17T05:13:46.181Z,1006.88
2017-09-17T05:14:12.351Z,1006.92
2017-09-17T05:14:38.535Z,1006.92
2017-09-17T05:15:04.697Z,1006.96
2017-09-17T05:15:30.860Z,1006.95
2017-09-17T05:15:57.021Z,1006.94
2017-09-17T05:16:23.182Z,1006.93
2017-09-17T05:16:49.374Z,1006.95
2017-09-17T05:17:15.535Z,1006.98